createdAt,value
2023-02-16T00:00:50.000Z,88.67
2023-02-16T00:01:50.000Z,88.67
2023-02-16T00:02:50.000Z,88.46
2023-02-16T00:03:50.000Z,88.35
2023-02-16T00:04:50.000Z,88.35
2023-02-16T00:05:50.000Z,88.35
2023-02-16T00:06:50.000Z,88.25
2023-02-16T00:07:50.000Z,88.15
2023-02-16T00:08:50.000Z,88.04
2023-02-16T00:09:50.000Z,88.04
2023-02-16T00:10:50.000Z,87.94
2023-02-16T00:11:50.000Z,87.84
2023-02-16T00:12:51.000Z,87.94
2023-02-16T00:13:51.000Z,87.84
2023-02-16T00:14:51.000Z,87.94
2023-02-16T00:15:51.000Z,87.94
2023-02-16T00:16:51.000Z,87.94
2023-02-16T00:17:51.000Z,87.98
2023-02-16T00:18:51.000Z,87.94
2023-02-16T00:19:51.000Z,87.88
2023-02-16T00:20:51.000Z,87.88
2023-02-16T00:21:51.000Z,87.88
2023-02-16T00:22:51.000Z,87.88
2023-02-16T00:23:51.000Z,87.88
2023-02-16T00:24:51.000Z,87.88
2023-02-16T00:25:51.000Z,87.88
2023-02-16T00:26:51.000Z,87.98
2023-02-16T00:27:51.000Z,88.09
2023-02-16T00:28:51.000Z,87.98
2023-02-16T00:29:51.000Z,88.09
2023-02-16T00:30:51.000Z,88.09
2023-02-16T00:31:51.000Z,88.09
2023-02-16T00:32:51.000Z,88.09
2023-02-16T00:33:52.000Z,88.19
2023-02-16T00:34:52.000Z,88.33
2023-02-16T00:35:52.000Z,88.43
2023-02-16T00:36:52.000Z,88.54
2023-02-16T00:37:52.000Z,88.64
2023-02-16T00:38:52.000Z,88.75
2023-02-16T00:39:52.000Z,88.96
2023-02-16T00:40:52.000Z,89.10
2023-02-16T00:41:52.000Z,89.20
2023-02-16T00:42:52.000Z,89.41
2023-02-16T00:43:52.000Z,89.52
2023-02-16T00:44:52.000Z,89.41
2023-02-16T00:45:52.000Z,89.41
2023-02-16T00:46:52.000Z,89.41
2023-02-16T00:47:52.000Z,89.73
2023-02-16T00:48:52.000Z,89.87
2023-02-16T00:49:52.000Z,89.98
2023-02-16T00:50:52.000Z,90.08
2023-02-16T00:51:52.000Z,90.08
2023-02-16T00:52:53.000Z,90.08
2023-02-16T00:53:53.000Z,90.08
2023-02-16T00:54:53.000Z,90.08
2023-02-16T00:55:53.000Z,90.29
2023-02-16T00:56:53.000Z,90.29
2023-02-16T00:57:53.000Z,90.29
2023-02-16T00:58:53.000Z,90.29
2023-02-16T00:59:53.000Z,90.29
2023-02-16T01:00:53.000Z,90.39
2023-02-16T01:01:53.000Z,90.50
2023-02-16T01:02:53.000Z,90.50
2023-02-16T01:03:53.000Z,90.44
2023-02-16T01:04:53.000Z,90.39
2023-02-16T01:05:53.000Z,90.50
2023-02-16T01:06:53.000Z,90.39
2023-02-16T01:07:53.000Z,90.44
2023-02-16T01:08:53.000Z,90.50
2023-02-16T01:09:53.000Z,90.50
2023-02-16T01:10:53.000Z,90.39
2023-02-16T01:11:54.000Z,90.44
2023-02-16T01:12:54.000Z,90.44
2023-02-16T01:13:54.000Z,90.54
2023-02-16T01:14:54.000Z,90.64
2023-02-16T01:15:54.000Z,90.75
2023-02-16T01:16:54.000Z,90.75
2023-02-16T01:17:54.000Z,90.75
2023-02-16T01:18:54.000Z,90.64
2023-02-16T01:19:54.000Z,90.75
2023-02-16T01:20:54.000Z,90.64
2023-02-16T01:21:54.000Z,90.64
2023-02-16T01:22:54.000Z,90.54
2023-02-16T01:23:54.000Z,90.54
2023-02-16T01:24:54.000Z,90.54
2023-02-16T01:25:54.000Z,90.44
2023-02-16T01:26:54.000Z,90.39
2023-02-16T01:27:54.000Z,90.29
2023-02-16T01:28:55.000Z,90.29
2023-02-16T01:29:55.000Z,90.19
2023-02-16T01:30:55.000Z,90.19
2023-02-16T01:31:55.000Z,90.08
2023-02-16T01:32:55.000Z,89.87
2023-02-16T01:33:55.000Z,89.87
2023-02-16T01:34:55.000Z,89.76
2023-02-16T01:35:55.000Z,89.76
2023-02-16T01:36:55.000Z,89.76
2023-02-16T01:37:55.000Z,89.66
2023-02-16T01:38:55.000Z,89.76
2023-02-16T01:39:55.000Z,90.01
2023-02-16T01:40:55.000Z,90.12
2023-02-16T01:41:55.000Z,90.22
2023-02-16T01:42:55.000Z,90.22
2023-02-16T01:43:55.000Z,90.01
2023-02-16T01:44:55.000Z,90.01
2023-02-16T01:45:55.000Z,90.12
2023-02-16T01:46:56.000Z,90.01
2023-02-16T01:47:56.000Z,89.91
2023-02-16T01:48:56.000Z,89.81
2023-02-16T01:49:56.000Z,89.81
2023-02-16T01:50:56.000Z,89.81
2023-02-16T01:51:56.000Z,89.81
2023-02-16T01:52:56.000Z,89.91
2023-02-16T01:53:56.000Z,89.91
2023-02-16T01:54:56.000Z,89.91
2023-02-16T01:55:56.000Z,89.91
2023-02-16T01:56:56.000Z,90.01
2023-02-16T01:57:56.000Z,90.01
2023-02-16T01:58:56.000Z,90.16
2023-02-16T01:59:56.000Z,90.22
2023-02-16T02:00:56.000Z,90.22
2023-02-16T02:01:56.000Z,90.37
2023-02-16T02:02:56.000Z,90.47
2023-02-16T02:03:57.000Z,90.47
2023-02-16T02:04:57.000Z,90.37
2023-02-16T02:05:57.000Z,90.37
2023-02-16T02:06:57.000Z,90.26
2023-02-16T02:07:57.000Z,90.26
2023-02-16T02:08:57.000Z,90.47
2023-02-16T02:09:57.000Z,90.79
2023-02-16T02:10:57.000Z,91.14
2023-02-16T02:11:57.000Z,91.20
2023-02-16T02:12:57.000Z,91.20
2023-02-16T02:13:57.000Z,91.20
2023-02-16T02:14:57.000Z,91.20
2023-02-16T02:15:57.000Z,91.20
2023-02-16T02:16:57.000Z,91.10
2023-02-16T02:17:57.000Z,91.10
2023-02-16T02:18:57.000Z,91.00
2023-02-16T02:19:57.000Z,91.00
2023-02-16T02:20:58.000Z,90.89
2023-02-16T02:21:58.000Z,90.79
2023-02-16T02:22:58.000Z,90.79
2023-02-16T02:23:58.000Z,90.68
2023-02-16T02:24:58.000Z,90.68
2023-02-16T02:25:58.000Z,90.58
2023-02-16T02:26:58.000Z,90.58
2023-02-16T02:27:58.000Z,90.58
2023-02-16T02:28:58.000Z,90.58
2023-02-16T02:29:58.000Z,90.47
2023-02-16T02:30:58.000Z,90.58
2023-02-16T02:31:58.000Z,90.58
2023-02-16T02:32:58.000Z,90.68
2023-02-16T02:33:58.000Z,90.68
2023-02-16T02:34:58.000Z,90.68
2023-02-16T02:35:58.000Z,90.79
2023-02-16T02:36:58.000Z,90.83
2023-02-16T02:37:59.000Z,90.93
2023-02-16T02:38:59.000Z,90.89
2023-02-16T02:39:59.000Z,90.93
2023-02-16T02:40:59.000Z,90.79
2023-02-16T02:41:59.000Z,90.83
2023-02-16T02:42:59.000Z,90.83
2023-02-16T02:43:59.000Z,90.79
2023-02-16T02:44:59.000Z,90.72
2023-02-16T02:45:59.000Z,90.72
2023-02-16T02:46:59.000Z,90.72
2023-02-16T02:47:59.000Z,90.72
2023-02-16T02:48:59.000Z,90.93
2023-02-16T02:49:59.000Z,90.93
2023-02-16T02:50:59.000Z,91.04
2023-02-16T02:51:59.000Z,91.04
2023-02-16T02:52:59.000Z,90.93
2023-02-16T02:54:00.000Z,90.83
2023-02-16T02:55:00.000Z,90.72
2023-02-16T02:56:00.000Z,90.72
2023-02-16T03:03:18.000Z,90.41
2023-02-16T03:03:18.000Z,90.37
2023-02-16T03:04:18.000Z,90.37
2023-02-16T03:05:18.000Z,90.26
2023-02-16T03:06:18.000Z,90.37
2023-02-16T03:07:18.000Z,90.26
2023-02-16T03:08:18.000Z,90.31
2023-02-16T03:09:18.000Z,90.31
2023-02-16T03:10:18.000Z,90.26
2023-02-16T03:11:18.000Z,90.16
2023-02-16T03:12:18.000Z,90.20
2023-02-16T03:13:18.000Z,90.31
2023-02-16T03:14:18.000Z,90.31
2023-02-16T03:15:18.000Z,90.31
2023-02-16T03:16:18.000Z,90.41
2023-02-16T03:17:18.000Z,90.72
2023-02-16T03:18:18.000Z,90.83
2023-02-16T03:19:18.000Z,90.83
2023-02-16T03:20:18.000Z,90.72
2023-02-16T03:21:18.000Z,90.83
2023-02-16T03:22:18.000Z,90.72
2023-02-16T03:23:18.000Z,90.62
2023-02-16T03:24:18.000Z,90.52
2023-02-16T03:25:18.000Z,90.41
2023-02-16T03:26:18.000Z,90.41
2023-02-16T03:27:18.000Z,90.31
2023-02-16T03:28:18.000Z,90.31
2023-02-16T03:29:18.000Z,90.41
2023-02-16T03:30:18.000Z,90.41
2023-02-16T03:31:18.000Z,90.52
2023-02-16T03:32:18.000Z,90.62
2023-02-16T03:33:18.000Z,90.77
2023-02-16T03:34:18.000Z,90.77
2023-02-16T03:35:18.000Z,90.72
2023-02-16T03:36:18.000Z,90.97
2023-02-16T03:37:18.000Z,90.97
2023-02-16T03:38:18.000Z,90.97
2023-02-16T03:39:18.000Z,91.18
2023-02-16T03:40:18.000Z,91.39
2023-02-16T03:41:18.000Z,91.39
2023-02-16T03:42:18.000Z,91.29
2023-02-16T03:43:18.000Z,91.29
2023-02-16T03:44:18.000Z,91.18
2023-02-16T03:45:18.000Z,91.39
2023-02-16T03:46:18.000Z,91.50
2023-02-16T03:47:18.000Z,91.50
2023-02-16T03:48:18.000Z,91.50
2023-02-16T03:49:18.000Z,91.39
2023-02-16T03:50:18.000Z,91.18
2023-02-16T03:51:18.000Z,91.08
2023-02-16T03:52:18.000Z,91.08
2023-02-16T03:53:18.000Z,91.08
2023-02-16T03:54:18.000Z,91.08
2023-02-16T03:55:18.000Z,91.18
2023-02-16T03:56:18.000Z,91.39
2023-02-16T03:57:18.000Z,91.71
2023-02-16T03:58:18.000Z,91.81
2023-02-16T03:59:18.000Z,91.91
2023-02-16T04:00:18.000Z,92.02
2023-02-16T04:01:18.000Z,92.02
2023-02-16T04:02:18.000Z,92.02
2023-02-16T04:03:18.000Z,91.81
2023-02-16T04:04:18.000Z,91.81
2023-02-16T04:05:18.000Z,91.81
2023-02-16T04:06:18.000Z,91.81
2023-02-16T04:07:18.000Z,91.71
2023-02-16T04:08:18.000Z,91.71
2023-02-16T04:09:18.000Z,91.71
2023-02-16T04:10:18.000Z,91.81
2023-02-16T04:11:18.000Z,92.02
2023-02-16T04:12:18.000Z,92.02
2023-02-16T04:13:18.000Z,91.91
2023-02-16T04:14:18.000Z,91.81
2023-02-16T04:15:18.000Z,91.81
2023-02-16T04:16:18.000Z,91.81
2023-02-16T04:17:18.000Z,91.91
2023-02-16T04:18:18.000Z,91.91
2023-02-16T04:19:18.000Z,91.91
2023-02-16T04:20:18.000Z,91.81
2023-02-16T04:21:18.000Z,91.71
2023-02-16T04:22:18.000Z,91.81
2023-02-16T04:23:18.000Z,91.81
2023-02-16T04:24:18.000Z,91.81
2023-02-16T04:25:18.000Z,91.66
2023-02-16T04:26:18.000Z,91.71
2023-02-16T04:27:18.000Z,91.77
2023-02-16T04:28:18.000Z,91.91
2023-02-16T04:29:19.000Z,91.91
2023-02-16T04:30:19.000Z,91.91
2023-02-16T04:31:19.000Z,92.02
2023-02-16T04:32:19.000Z,92.02
2023-02-16T04:33:19.000Z,91.91
2023-02-16T04:34:19.000Z,91.91
2023-02-16T04:35:19.000Z,92.02
2023-02-16T04:36:19.000Z,92.02
2023-02-16T04:37:19.000Z,92.12
2023-02-16T04:38:19.000Z,91.97
2023-02-16T04:39:19.000Z,92.02
2023-02-16T04:40:19.000Z,92.12
2023-02-16T04:41:19.000Z,92.12
2023-02-16T04:42:19.000Z,91.97
2023-02-16T04:43:19.000Z,91.97
2023-02-16T04:44:19.000Z,91.97
2023-02-16T04:45:19.000Z,92.02
2023-02-16T04:46:19.000Z,92.02
2023-02-16T04:47:19.000Z,92.02
2023-02-16T04:48:19.000Z,92.02
2023-02-16T04:49:19.000Z,92.12
2023-02-16T04:50:19.000Z,92.22
2023-02-16T04:51:19.000Z,92.44
2023-02-16T04:52:19.000Z,92.44
2023-02-16T04:53:19.000Z,92.54
2023-02-16T04:54:19.000Z,92.65
2023-02-16T04:55:19.000Z,92.54
2023-02-16T04:56:19.000Z,92.54
2023-02-16T04:57:19.000Z,92.54
2023-02-16T04:58:19.000Z,92.44
2023-02-16T04:59:19.000Z,92.54
2023-02-16T05:00:19.000Z,92.75
2023-02-16T05:01:19.000Z,92.85
2023-02-16T05:02:19.000Z,92.85
2023-02-16T05:03:19.000Z,92.96
2023-02-16T05:04:19.000Z,92.85
2023-02-16T05:05:19.000Z,92.85
2023-02-16T05:06:19.000Z,92.96
2023-02-16T05:13:37.000Z,93.52
2023-02-16T05:13:37.000Z,93.48
2023-02-16T05:14:37.000Z,93.48
2023-02-16T05:15:37.000Z,93.59
2023-02-16T05:16:37.000Z,93.48
2023-02-16T05:17:37.000Z,93.48
2023-02-16T05:18:37.000Z,93.37
2023-02-16T05:19:37.000Z,93.27
2023-02-16T05:20:37.000Z,93.27
2023-02-16T05:21:37.000Z,93.27
2023-02-16T05:22:37.000Z,93.16
2023-02-16T05:23:37.000Z,93.16
2023-02-16T05:24:37.000Z,93.06
2023-02-16T05:25:37.000Z,93.06
2023-02-16T05:26:37.000Z,93.16
2023-02-16T05:27:37.000Z,93.27
2023-02-16T05:28:37.000Z,93.27
2023-02-16T05:29:37.000Z,93.41
2023-02-16T05:30:37.000Z,93.48
2023-02-16T05:31:37.000Z,93.48
2023-02-16T05:32:37.000Z,93.48
2023-02-16T05:33:37.000Z,93.48
2023-02-16T05:34:37.000Z,93.27
2023-02-16T05:35:37.000Z,93.16
2023-02-16T05:36:37.000Z,93.16
2023-02-16T05:37:37.000Z,93.27
2023-02-16T05:38:37.000Z,93.16
2023-02-16T05:39:37.000Z,93.16
2023-02-16T05:40:37.000Z,93.06
2023-02-16T05:41:37.000Z,93.16
2023-02-16T05:42:37.000Z,93.16
2023-02-16T05:43:37.000Z,93.06
2023-02-16T05:44:37.000Z,93.06
2023-02-16T05:45:37.000Z,92.85
2023-02-16T05:46:37.000Z,92.75
2023-02-16T05:47:37.000Z,92.75
2023-02-16T05:48:37.000Z,92.75
2023-02-16T05:49:37.000Z,92.75
2023-02-16T05:50:37.000Z,92.65
2023-02-16T05:51:37.000Z,92.75
2023-02-16T05:52:37.000Z,92.65
2023-02-16T05:53:37.000Z,92.75
2023-02-16T05:54:37.000Z,92.85
2023-02-16T05:55:37.000Z,92.96
2023-02-16T05:56:38.000Z,92.96
2023-02-16T05:57:38.000Z,92.85
2023-02-16T05:58:38.000Z,92.85
2023-02-16T05:59:38.000Z,92.75
2023-02-16T06:00:38.000Z,92.65
2023-02-16T06:01:38.000Z,92.75
2023-02-16T06:02:38.000Z,92.75
2023-02-16T06:03:38.000Z,92.79
2023-02-16T06:04:38.000Z,93.00
2023-02-16T06:05:38.000Z,93.10
2023-02-16T06:06:38.000Z,93.21
2023-02-16T06:07:38.000Z,93.31
2023-02-16T06:08:38.000Z,93.21
2023-02-16T06:09:38.000Z,93.31
2023-02-16T06:10:38.000Z,93.41
2023-02-16T06:11:38.000Z,93.52
2023-02-16T06:12:38.000Z,93.73
2023-02-16T06:13:38.000Z,93.84
2023-02-16T06:14:38.000Z,93.84
2023-02-16T06:15:38.000Z,93.73
2023-02-16T06:16:38.000Z,93.63
2023-02-16T06:17:38.000Z,93.52
2023-02-16T06:18:38.000Z,93.31
2023-02-16T06:19:38.000Z,93.31
2023-02-16T06:20:38.000Z,93.41
2023-02-16T06:21:38.000Z,93.52
2023-02-16T06:22:38.000Z,93.73
2023-02-16T06:23:38.000Z,93.63
2023-02-16T06:24:38.000Z,93.63
2023-02-16T06:25:38.000Z,93.63
2023-02-16T06:26:38.000Z,93.63
2023-02-16T06:27:38.000Z,93.41
2023-02-16T06:28:38.000Z,93.52
2023-02-16T06:29:38.000Z,93.52
2023-02-16T06:30:38.000Z,93.63
2023-02-16T06:31:38.000Z,93.73
2023-02-16T06:32:38.000Z,93.63
2023-02-16T06:33:38.000Z,93.52
2023-02-16T06:34:38.000Z,93.41
2023-02-16T06:35:38.000Z,93.31
2023-02-16T06:36:38.000Z,93.41
2023-02-16T06:37:38.000Z,93.52
2023-02-16T06:38:38.000Z,93.52
2023-02-16T06:39:38.000Z,93.63
2023-02-16T06:40:38.000Z,93.63
2023-02-16T06:41:38.000Z,93.73
2023-02-16T06:42:38.000Z,93.90
2023-02-16T06:43:38.000Z,93.90
2023-02-16T06:44:38.000Z,93.79
2023-02-16T06:45:38.000Z,93.59
2023-02-16T06:46:38.000Z,93.44
2023-02-16T06:47:38.000Z,93.23
2023-02-16T06:48:38.000Z,92.91
2023-02-16T06:49:38.000Z,92.81
2023-02-16T06:50:38.000Z,92.50
2023-02-16T06:51:38.000Z,92.50
2023-02-16T06:52:38.000Z,92.40
2023-02-16T06:53:38.000Z,92.14
2023-02-16T06:54:38.000Z,92.03
2023-02-16T06:55:38.000Z,91.83
2023-02-16T06:56:38.000Z,91.93
2023-02-16T06:57:38.000Z,91.72
2023-02-16T06:58:38.000Z,91.62
2023-02-16T06:59:38.000Z,91.52
2023-02-16T07:00:38.000Z,91.41
2023-02-16T07:01:38.000Z,91.41
2023-02-16T07:02:38.000Z,91.62
2023-02-16T07:03:38.000Z,91.62
2023-02-16T07:04:38.000Z,91.52
2023-02-16T07:05:38.000Z,91.52
2023-02-16T07:06:38.000Z,91.52
2023-02-16T07:07:38.000Z,91.52
2023-02-16T07:08:38.000Z,91.62
2023-02-16T07:09:38.000Z,91.62
2023-02-16T07:10:38.000Z,91.62
2023-02-16T07:11:38.000Z,91.72
2023-02-16T07:12:38.000Z,91.72
2023-02-16T07:13:38.000Z,91.72
2023-02-16T07:14:38.000Z,91.83
2023-02-16T07:15:38.000Z,91.93
2023-02-16T07:16:38.000Z,91.93
2023-02-16T07:17:38.000Z,91.93
2023-02-16T07:18:39.000Z,91.83
2023-02-16T07:19:39.000Z,91.72
2023-02-16T07:20:39.000Z,91.83
2023-02-16T07:21:39.000Z,91.83
2023-02-16T07:22:39.000Z,91.93
2023-02-16T07:23:39.000Z,91.93
2023-02-16T07:24:39.000Z,91.93
2023-02-16T07:25:39.000Z,91.93
2023-02-16T07:26:39.000Z,92.03
2023-02-16T07:27:39.000Z,91.93
2023-02-16T07:28:39.000Z,91.93
2023-02-16T07:29:39.000Z,91.83
2023-02-16T07:30:39.000Z,91.83
2023-02-16T07:31:39.000Z,91.72
2023-02-16T07:32:39.000Z,91.72
2023-02-16T07:33:39.000Z,91.68
2023-02-16T07:34:39.000Z,91.68
2023-02-16T07:35:39.000Z,91.68
2023-02-16T07:36:39.000Z,91.58
2023-02-16T07:37:39.000Z,91.47
2023-02-16T07:38:39.000Z,91.52
2023-02-16T07:39:39.000Z,91.37
2023-02-16T07:40:39.000Z,91.52
2023-02-16T07:41:39.000Z,91.47
2023-02-16T07:42:39.000Z,91.37
2023-02-16T07:43:39.000Z,91.27
2023-02-16T07:44:39.000Z,91.27
2023-02-16T07:45:39.000Z,91.27
2023-02-16T07:46:39.000Z,91.16
2023-02-16T07:47:39.000Z,91.06
2023-02-16T07:48:39.000Z,91.06
2023-02-16T07:49:39.000Z,90.95
2023-02-16T07:50:39.000Z,90.85
2023-02-16T07:51:39.000Z,90.85
2023-02-16T07:52:39.000Z,90.85
2023-02-16T07:53:39.000Z,90.85
2023-02-16T07:54:39.000Z,90.85
2023-02-16T07:55:39.000Z,90.85
2023-02-16T07:56:39.000Z,90.85
2023-02-16T07:57:39.000Z,90.85
2023-02-16T07:58:39.000Z,90.85
2023-02-16T07:59:39.000Z,90.85
2023-02-16T08:00:39.000Z,90.70
2023-02-16T08:01:39.000Z,90.70
2023-02-16T08:02:39.000Z,90.81
2023-02-16T08:03:39.000Z,90.91
2023-02-16T08:04:39.000Z,90.81
2023-02-16T08:05:39.000Z,90.81
2023-02-16T08:06:39.000Z,90.81
2023-02-16T08:07:39.000Z,90.81
2023-02-16T08:08:39.000Z,90.81
2023-02-16T08:09:39.000Z,90.81
2023-02-16T08:10:39.000Z,90.45
2023-02-16T08:11:39.000Z,90.35
2023-02-16T08:12:39.000Z,90.35
2023-02-16T08:13:39.000Z,90.35
2023-02-16T08:14:39.000Z,90.25
2023-02-16T08:15:39.000Z,90.14
2023-02-16T08:16:39.000Z,90.04
2023-02-16T08:17:39.000Z,89.89
2023-02-16T08:18:39.000Z,89.79
2023-02-16T08:19:39.000Z,89.69
2023-02-16T08:20:39.000Z,89.37
2023-02-16T08:21:39.000Z,89.37
2023-02-16T08:22:39.000Z,89.23
2023-02-16T08:23:39.000Z,89.12
2023-02-16T08:24:39.000Z,88.81
2023-02-16T08:25:39.000Z,88.60
2023-02-16T08:26:39.000Z,88.29
2023-02-16T08:27:39.000Z,88.19
2023-02-16T08:28:39.000Z,87.94
2023-02-16T08:29:39.000Z,87.73
2023-02-16T08:30:39.000Z,87.73
2023-02-16T08:31:39.000Z,87.63
2023-02-16T08:32:39.000Z,87.63
2023-02-16T08:33:39.000Z,87.63
2023-02-16T08:34:39.000Z,87.63
2023-02-16T08:35:39.000Z,87.42
2023-02-16T08:36:39.000Z,87.48
2023-02-16T08:37:39.000Z,87.38
2023-02-16T08:38:39.000Z,87.27
2023-02-16T08:39:39.000Z,87.07
2023-02-16T08:40:39.000Z,86.96
2023-02-16T08:41:39.000Z,86.96
2023-02-16T08:42:39.000Z,86.82
2023-02-16T08:43:39.000Z,86.61
2023-02-16T08:44:39.000Z,86.30
2023-02-16T08:45:39.000Z,86.30
2023-02-16T08:46:39.000Z,85.99
2023-02-16T08:47:39.000Z,85.99
2023-02-16T08:48:39.000Z,85.74
2023-02-16T08:49:39.000Z,85.74
2023-02-16T08:50:39.000Z,85.74
2023-02-16T08:51:39.000Z,85.64
2023-02-16T08:52:39.000Z,85.74
2023-02-16T08:53:39.000Z,85.85
2023-02-16T08:54:39.000Z,85.64
2023-02-16T08:55:39.000Z,85.39
2023-02-16T08:56:39.000Z,85.19
2023-02-16T08:57:39.000Z,85.08
2023-02-16T08:58:39.000Z,85.08
2023-02-16T08:59:39.000Z,84.98
2023-02-16T09:00:39.000Z,84.98
2023-02-16T09:01:39.000Z,84.98
2023-02-16T09:02:39.000Z,84.83
2023-02-16T09:03:39.000Z,84.94
2023-02-16T09:04:39.000Z,84.94
2023-02-16T09:05:39.000Z,84.83
2023-02-16T09:06:39.000Z,84.94
2023-02-16T09:07:39.000Z,84.73
2023-02-16T09:08:39.000Z,84.11
2023-02-16T09:09:39.000Z,84.38
2023-02-16T09:10:39.000Z,84.31
2023-02-16T09:11:39.000Z,84.17
2023-02-16T09:12:39.000Z,84.28
2023-02-16T09:13:39.000Z,83.97
2023-02-16T09:14:39.000Z,83.86
2023-02-16T09:15:39.000Z,83.76
2023-02-16T09:16:39.000Z,83.72
2023-02-16T09:17:39.000Z,83.72
2023-02-16T09:18:39.000Z,83.93
2023-02-16T09:19:39.000Z,83.72
2023-02-16T09:20:39.000Z,83.62
2023-02-16T09:21:39.000Z,83.41
2023-02-16T09:22:39.000Z,83.47
2023-02-16T09:23:39.000Z,83.37
2023-02-16T09:24:39.000Z,83.26
2023-02-16T09:25:39.000Z,83.26
2023-02-16T09:26:39.000Z,83.06
2023-02-16T09:27:39.000Z,82.75
2023-02-16T09:28:39.000Z,82.95
2023-02-16T09:29:39.000Z,83.12
2023-02-16T09:30:39.000Z,83.02
2023-02-16T09:31:39.000Z,82.50
2023-02-16T09:32:39.000Z,82.60
2023-02-16T09:33:39.000Z,82.36
2023-02-16T09:34:39.000Z,82.05
2023-02-16T09:35:39.000Z,81.74
2023-02-16T09:36:39.000Z,81.54
2023-02-16T09:37:39.000Z,81.43
2023-02-16T09:38:39.000Z,81.54
2023-02-16T09:39:39.000Z,81.91
2023-02-16T09:40:39.000Z,81.60
2023-02-16T09:41:39.000Z,81.39
2023-02-16T09:42:39.000Z,81.60
2023-02-16T09:43:39.000Z,81.70
2023-02-16T09:44:39.000Z,81.25
2023-02-16T09:45:39.000Z,80.94
2023-02-16T09:46:39.000Z,80.94
2023-02-16T09:47:39.000Z,80.94
2023-02-16T09:48:39.000Z,81.01
2023-02-16T09:49:39.000Z,80.80
2023-02-16T09:50:39.000Z,80.80
2023-02-16T09:51:39.000Z,79.97
2023-02-16T09:52:39.000Z,80.08
2023-02-16T09:53:39.000Z,80.49
2023-02-16T09:54:39.000Z,80.29
2023-02-16T09:55:39.000Z,79.87
2023-02-16T09:56:38.000Z,80.08
2023-02-16T09:57:38.000Z,80.39
2023-02-16T09:58:38.000Z,79.94
2023-02-16T09:59:38.000Z,80.25
2023-02-16T10:00:38.000Z,80.25
2023-02-16T10:01:38.000Z,80.35
2023-02-16T10:02:38.000Z,80.04
2023-02-16T10:03:38.000Z,79.63
2023-02-16T10:04:38.000Z,79.52
2023-02-16T10:05:38.000Z,78.97
2023-02-16T10:06:38.000Z,79.08
2023-02-16T10:07:38.000Z,78.66
2023-02-16T10:08:38.000Z,78.66
2023-02-16T10:09:38.000Z,78.87
2023-02-16T10:10:38.000Z,78.87
2023-02-16T10:11:38.000Z,78.63
2023-02-16T10:12:38.000Z,78.42
2023-02-16T10:13:38.000Z,78.73
2023-02-16T10:14:38.000Z,78.52
2023-02-16T10:15:38.000Z,78.42
2023-02-16T10:16:38.000Z,78.01
2023-02-16T10:17:38.000Z,77.91
2023-02-16T10:18:38.000Z,77.80
2023-02-16T10:19:38.000Z,78.31
2023-02-16T10:20:38.000Z,78.69
2023-02-16T10:21:38.000Z,78.08
2023-02-16T10:22:38.000Z,77.97
2023-02-16T10:23:38.000Z,77.76
2023-02-16T10:24:38.000Z,77.35
2023-02-16T10:25:38.000Z,77.45
2023-02-16T10:26:38.000Z,77.76
2023-02-16T10:27:38.000Z,78.14
2023-02-16T10:28:38.000Z,77.62
2023-02-16T10:29:38.000Z,77.52
2023-02-16T10:30:38.000Z,77.31
2023-02-16T10:31:38.000Z,77.22
2023-02-16T10:32:38.000Z,77.11
2023-02-16T10:33:38.000Z,77.22
2023-02-16T10:34:38.000Z,77.01
2023-02-16T10:35:38.000Z,77.01
2023-02-16T10:36:38.000Z,77.28
2023-02-16T10:37:37.000Z,77.18
2023-02-16T10:38:37.000Z,77.08
2023-02-16T10:39:37.000Z,76.97
2023-02-16T10:40:37.000Z,76.76
2023-02-16T10:41:37.000Z,77.08
2023-02-16T10:42:37.000Z,77.18
2023-02-16T10:43:37.000Z,76.46
2023-02-16T10:44:37.000Z,76.63
2023-02-16T10:45:37.000Z,76.73
2023-02-16T10:46:37.000Z,76.63
2023-02-16T10:47:37.000Z,76.93
2023-02-16T10:48:37.000Z,76.83
2023-02-16T10:49:37.000Z,76.42
2023-02-16T10:50:37.000Z,76.07
2023-02-16T10:51:37.000Z,75.97
2023-02-16T10:52:37.000Z,76.28
2023-02-16T10:53:37.000Z,76.28
2023-02-16T10:54:37.000Z,76.18
2023-02-16T10:55:37.000Z,76.18
2023-02-16T10:56:37.000Z,76.07
2023-02-16T10:57:37.000Z,75.87
2023-02-16T10:58:37.000Z,75.77
2023-02-16T10:59:37.000Z,76.49
2023-02-16T11:00:37.000Z,75.94
2023-02-16T11:01:37.000Z,76.04
2023-02-16T11:02:37.000Z,76.14
2023-02-16T11:03:36.000Z,75.73
2023-02-16T11:04:36.000Z,75.52
2023-02-16T11:05:36.000Z,74.87
2023-02-16T11:06:36.000Z,75.18
2023-02-16T11:07:36.000Z,75.29
2023-02-16T11:08:36.000Z,74.67
2023-02-16T11:09:36.000Z,75.18
2023-02-16T11:10:36.000Z,75.39
2023-02-16T11:11:36.000Z,75.59
2023-02-16T11:12:36.000Z,75.18
2023-02-16T11:13:36.000Z,75.18
2023-02-16T11:14:36.000Z,74.84
2023-02-16T11:15:36.000Z,75.04
2023-02-16T11:16:36.000Z,74.53
2023-02-16T11:17:36.000Z,73.91
2023-02-16T11:18:36.000Z,74.02
2023-02-16T11:19:36.000Z,74.12
2023-02-16T11:20:36.000Z,74.12
2023-02-16T11:21:36.000Z,73.71
2023-02-16T11:22:36.000Z,73.40
2023-02-16T11:23:36.000Z,73.91
2023-02-16T11:24:36.000Z,74.08
2023-02-16T11:25:35.000Z,73.57
2023-02-16T11:26:35.000Z,73.98
2023-02-16T11:27:35.000Z,73.98
2023-02-16T11:28:35.000Z,73.36
2023-02-16T11:29:35.000Z,73.78
2023-02-16T11:30:35.000Z,73.68
2023-02-16T11:31:35.000Z,73.78
2023-02-16T11:32:35.000Z,73.98
2023-02-16T11:33:35.000Z,73.36
2023-02-16T11:34:35.000Z,73.23
2023-02-16T11:35:35.000Z,73.47
2023-02-16T11:36:35.000Z,73.54
2023-02-16T11:37:35.000Z,73.33
2023-02-16T11:38:35.000Z,72.82
2023-02-16T11:39:35.000Z,73.13
2023-02-16T11:40:35.000Z,72.51
2023-02-16T11:41:35.000Z,72.06
2023-02-16T11:42:35.000Z,72.06
2023-02-16T11:43:35.000Z,72.58
2023-02-16T11:44:34.000Z,72.58
2023-02-16T11:45:34.000Z,72.17
2023-02-16T11:46:34.000Z,72.06
2023-02-16T11:47:34.000Z,72.17
2023-02-16T11:48:34.000Z,72.38
2023-02-16T11:49:34.000Z,72.48
2023-02-16T11:50:34.000Z,72.17
2023-02-16T11:51:34.000Z,72.58
2023-02-16T11:52:34.000Z,72.17
2023-02-16T11:53:34.000Z,71.86
2023-02-16T11:54:34.000Z,72.48
2023-02-16T11:55:34.000Z,72.48
2023-02-16T11:56:34.000Z,72.17
2023-02-16T11:57:34.000Z,72.48
2023-02-16T11:58:34.000Z,71.35
2023-02-16T11:59:34.000Z,72.06
2023-02-16T12:00:34.000Z,71.97
2023-02-16T12:01:33.000Z,72.17
2023-02-16T12:02:33.000Z,72.78
2023-02-16T12:03:33.000Z,72.27
2023-02-16T12:04:33.000Z,72.75
2023-02-16T12:05:33.000Z,72.44
2023-02-16T12:06:33.000Z,72.44
2023-02-16T12:07:33.000Z,72.14
2023-02-16T12:08:33.000Z,71.93
2023-02-16T12:09:33.000Z,72.14
2023-02-16T12:10:33.000Z,72.34
2023-02-16T12:11:33.000Z,72.85
2023-02-16T12:12:33.000Z,72.34
2023-02-16T12:13:33.000Z,72.14
2023-02-16T12:14:33.000Z,72.14
2023-02-16T12:15:33.000Z,72.85
2023-02-16T12:16:33.000Z,71.62
2023-02-16T12:17:33.000Z,71.42
2023-02-16T12:18:33.000Z,71.48
2023-02-16T12:19:32.000Z,71.48
2023-02-16T12:20:32.000Z,71.28
2023-02-16T12:21:32.000Z,72.00
2023-02-16T12:22:32.000Z,71.08
2023-02-16T12:23:32.000Z,71.15
2023-02-16T12:24:32.000Z,71.15
2023-02-16T12:25:32.000Z,70.43
2023-02-16T12:26:32.000Z,70.43
2023-02-16T12:27:32.000Z,70.40
2023-02-16T12:28:32.000Z,70.40
2023-02-16T12:29:32.000Z,69.47
2023-02-16T12:30:32.000Z,70.40
2023-02-16T12:31:32.000Z,70.19
2023-02-16T12:32:32.000Z,69.34
2023-02-16T12:33:32.000Z,69.34
2023-02-16T12:34:32.000Z,69.24
2023-02-16T12:35:31.000Z,69.03
2023-02-16T12:36:31.000Z,68.21
2023-02-16T12:37:31.000Z,68.52
2023-02-16T12:38:31.000Z,68.93
2023-02-16T12:39:31.000Z,68.52
2023-02-16T12:40:31.000Z,68.93
2023-02-16T12:41:31.000Z,69.65
2023-02-16T12:42:31.000Z,69.54
2023-02-16T12:43:31.000Z,69.85
2023-02-16T12:44:31.000Z,69.54
2023-02-16T12:45:31.000Z,69.54
2023-02-16T12:46:31.000Z,69.34
2023-02-16T12:47:31.000Z,69.71
2023-02-16T12:48:31.000Z,69.20
2023-02-16T12:49:31.000Z,69.41
2023-02-16T12:50:31.000Z,69.20
2023-02-16T12:51:30.000Z,69.48
2023-02-16T12:52:30.000Z,68.35
2023-02-16T12:53:30.000Z,68.55
2023-02-16T12:54:30.000Z,67.23
2023-02-16T12:55:30.000Z,66.31
2023-02-16T12:56:30.000Z,66.00
2023-02-16T12:57:30.000Z,66.58
2023-02-16T12:58:30.000Z,66.48
2023-02-16T12:59:30.000Z,67.30
2023-02-16T13:00:30.000Z,67.10
2023-02-16T13:01:30.000Z,66.55
2023-02-16T13:02:30.000Z,65.84
2023-02-16T13:03:30.000Z,65.02